createdAt,value
2022-12-13T00:01:46.770Z,94501.09
2022-12-13T00:04:14.869Z,94492.16
2022-12-13T00:06:42.949Z,94494.06
2022-12-13T00:09:13.810Z,94487.75
2022-12-13T00:11:41.865Z,94501.72
2022-12-13T00:14:11.570Z,94505.78
2022-12-13T00:16:39.382Z,94499.31
2022-12-13T00:19:07.596Z,94504.88
2022-12-13T00:21:35.567Z,94506.53
2022-12-13T00:24:03.634Z,94507.13
2022-12-13T00:26:33.274Z,94499.69
2022-12-13T00:29:01.657Z,94506.06
2022-12-13T00:34:20.066Z,94511.50
2022-12-13T00:36:48.221Z,94494.78
2022-12-13T00:39:16.639Z,94492.97
2022-12-13T00:41:45.095Z,94497.16
2022-12-13T00:44:14.263Z,94489.09
2022-12-13T00:46:44.023Z,94500.34
2022-12-13T00:49:13.724Z,94488.50
2022-12-13T00:51:41.815Z,94481.13
2022-12-13T00:54:11.015Z,94488.91
2022-12-13T00:56:39.303Z,94487.94
2022-12-13T00:59:07.314Z,94478.00
2022-12-13T01:01:37.211Z,94482.91
2022-12-13T01:04:07.934Z,94486.50
2022-12-13T01:06:38.672Z,94487.31
2022-12-13T01:09:11.054Z,94483.22
2022-12-13T01:11:38.923Z,94474.31
2022-12-13T01:14:06.757Z,94477.16
2022-12-13T01:16:34.622Z,94480.84
2022-12-13T01:19:02.491Z,94480.84
2022-12-13T01:21:31.658Z,94471.69
2022-12-13T01:24:03.278Z,94467.03
2022-12-13T01:26:31.498Z,94476.19
2022-12-13T01:28:59.822Z,94464.22
2022-12-13T01:31:28.050Z,94457.66
2022-12-13T01:33:56.017Z,94466.16
2022-12-13T01:36:27.792Z,94454.91
2022-12-13T01:38:58.411Z,94451.72
2022-12-13T01:41:29.187Z,94459.97
2022-12-13T01:44:03.141Z,94457.88
2022-12-13T01:46:32.206Z,94447.03
2022-12-13T01:49:05.415Z,94442.25
2022-12-13T01:51:53.468Z,94438.81
2022-12-13T01:54:33.834Z,94439.31
2022-12-13T01:57:05.795Z,94439.00
2022-12-13T01:59:35.191Z,94436.53
2022-12-13T02:02:03.243Z,94434.84
2022-12-13T02:04:37.377Z,94427.97
2022-12-13T02:07:23.116Z,94433.84
2022-12-13T02:09:56.838Z,94422.09
2022-12-13T02:12:29.920Z,94419.91
2022-12-13T02:15:00.775Z,94418.53
2022-12-13T02:17:55.458Z,94415.38
2022-12-13T02:20:55.732Z,94409.16
2022-12-13T02:24:08.824Z,94400.19
2022-12-13T02:27:05.162Z,94405.94
2022-12-13T02:30:08.371Z,94407.63
2022-12-13T02:32:42.587Z,94402.47
2022-12-13T02:35:19.290Z,94391.66
2022-12-13T02:37:54.034Z,94398.81
2022-12-13T02:40:27.681Z,94392.72
2022-12-13T02:43:03.067Z,94393.94
2022-12-13T02:45:35.947Z,94391.22
2022-12-13T02:48:07.432Z,94386.94
2022-12-13T02:50:36.882Z,94377.00
2022-12-13T02:53:07.199Z,94377.59
2022-12-13T02:55:36.730Z,94377.13
2022-12-13T02:58:05.148Z,94372.25
2022-12-13T03:00:48.813Z,94366.09
2022-12-13T03:03:27.517Z,94372.63
2022-12-13T03:06:19.501Z,94370.53
2022-12-13T03:08:57.894Z,94362.00
2022-12-13T03:11:49.674Z,94355.56
2022-12-13T03:14:21.752Z,94363.78
2022-12-13T03:16:53.014Z,94363.03
2022-12-13T03:19:22.697Z,94362.50
2022-12-13T03:21:51.015Z,94358.34
2022-12-13T03:24:21.077Z,94363.59
2022-12-13T03:26:51.029Z,94365.59
2022-12-13T03:29:23.295Z,94363.03
2022-12-13T03:31:51.535Z,94363.50
2022-12-13T03:34:22.861Z,94367.41
2022-12-13T03:36:53.064Z,94362.31
2022-12-13T03:39:21.450Z,94353.28
2022-12-13T03:41:50.110Z,94358.63
2022-12-13T03:44:18.791Z,94356.84
2022-12-13T03:46:46.655Z,94347.81
2022-12-13T03:49:17.419Z,94357.88
2022-12-13T03:51:45.592Z,94359.53
2022-12-13T03:54:14.961Z,94350.88
2022-12-13T03:56:42.774Z,94338.34
2022-12-13T03:59:10.626Z,94352.38
2022-12-13T04:01:38.625Z,94346.78
2022-12-13T04:04:06.438Z,94332.22
2022-12-13T04:06:34.294Z,94328.31
2022-12-13T04:09:02.130Z,94333.59
2022-12-13T04:11:48.605Z,94339.47
2022-12-13T04:14:22.365Z,94340.22
2022-12-13T04:16:51.222Z,94331.91
2022-12-13T04:19:23.228Z,94338.38
2022-12-13T04:21:52.000Z,94335.38
2022-12-13T04:24:19.927Z,94328.53
2022-12-13T04:26:49.793Z,94333.22
2022-12-13T04:29:17.802Z,94326.13
2022-12-13T04:31:45.570Z,94329.97
2022-12-13T04:34:14.030Z,94327.34
2022-12-13T04:36:41.957Z,94340.47
2022-12-13T04:39:22.499Z,94340.66
2022-12-13T04:41:53.408Z,94331.22
2022-12-13T04:44:28.708Z,94333.38
2022-12-13T04:47:01.288Z,94323.38
2022-12-13T04:49:29.654Z,94323.16
2022-12-13T04:52:01.379Z,94327.94
2022-12-13T04:54:36.268Z,94329.22
2022-12-13T04:57:07.306Z,94323.78
2022-12-13T04:59:35.295Z,94312.81
2022-12-13T05:02:03.254Z,94327.03
2022-12-13T05:04:33.127Z,94331.75
2022-12-13T05:07:01.303Z,94318.13
2022-12-13T05:09:29.098Z,94319.75
2022-12-13T05:12:01.261Z,94307.41
2022-12-13T05:14:31.346Z,94303.88
2022-12-13T05:16:59.550Z,94304.63
2022-12-13T05:19:31.159Z,94307.66
2022-12-13T05:22:01.451Z,94305.34
2022-12-13T05:24:30.436Z,94309.66
2022-12-13T05:26:58.596Z,94305.09
2022-12-13T05:29:27.559Z,94316.81
2022-12-13T05:31:56.816Z,94317.59
2022-12-13T05:34:24.685Z,94306.47
2022-12-13T05:36:52.603Z,94312.16
2022-12-13T05:39:29.220Z,94301.91
2022-12-13T05:42:01.888Z,94304.09
2022-12-13T05:44:31.627Z,94306.09
2022-12-13T05:47:02.068Z,94301.13
2022-12-13T05:49:32.036Z,94299.16
2022-12-13T05:51:59.997Z,94314.03
2022-12-13T05:54:27.818Z,94311.84
2022-12-13T05:56:55.817Z,94314.03
2022-12-13T05:59:23.663Z,94303.31
2022-12-13T06:01:51.672Z,94309.88
2022-12-13T06:04:22.970Z,94308.66
2022-12-13T06:06:51.710Z,94304.09
2022-12-13T06:09:19.950Z,94307.19
2022-12-13T06:11:47.891Z,94298.25
2022-12-13T06:14:21.855Z,94299.84
2022-12-13T06:16:51.364Z,94304.19
2022-12-13T06:19:19.323Z,94305.28
2022-12-13T06:21:48.523Z,94304.81
2022-12-13T06:24:17.084Z,94312.63
2022-12-13T06:26:46.169Z,94303.50
2022-12-13T06:29:22.819Z,94304.88
2022-12-13T06:32:01.246Z,94296.03
2022-12-13T06:34:31.873Z,94299.50
2022-12-13T06:37:01.259Z,94311.28
2022-12-13T06:39:33.174Z,94323.09
2022-12-13T06:42:05.905Z,94304.13
2022-12-13T06:44:33.784Z,94329.19
2022-12-13T06:47:11.675Z,94328.41
2022-12-13T06:49:42.850Z,94320.22
2022-12-13T06:52:14.281Z,94307.91
2022-12-13T06:54:42.649Z,94326.97
2022-12-13T06:57:11.038Z,94325.72
2022-12-13T06:59:39.076Z,94316.09
2022-12-13T07:02:24.523Z,94329.28
2022-12-13T07:04:54.826Z,94330.50
2022-12-13T07:07:25.316Z,94327.44
2022-12-13T07:09:53.291Z,94328.22
2022-12-13T07:12:23.690Z,94314.22
2022-12-13T07:14:53.511Z,94332.00
2022-12-13T07:17:33.477Z,94335.13
2022-12-13T07:20:09.167Z,94342.22
2022-12-13T07:22:47.279Z,94342.06
2022-12-13T07:25:27.555Z,94346.81
2022-12-13T07:28:03.504Z,94338.88
2022-12-13T07:30:33.297Z,94341.16
2022-12-13T07:33:02.701Z,94333.91
2022-12-13T07:35:30.989Z,94329.63
2022-12-13T07:38:08.748Z,94331.72
2022-12-13T07:40:37.301Z,94331.63
2022-12-13T07:43:05.637Z,94320.59
2022-12-13T07:45:34.006Z,94330.91
2022-12-13T07:48:05.567Z,94326.63
2022-12-13T07:50:36.806Z,94315.25
2022-12-13T07:53:08.203Z,94312.22
2022-12-13T07:55:36.866Z,94332.91
2022-12-13T07:58:06.455Z,94329.31
2022-12-13T08:00:34.867Z,94323.34
2022-12-13T08:03:03.076Z,94326.81
2022-12-13T08:05:38.771Z,94330.16
2022-12-13T08:08:11.758Z,94330.22
2022-12-13T08:10:40.289Z,94335.66
2022-12-13T08:13:08.078Z,94326.44
2022-12-13T08:15:35.931Z,94324.91
2022-12-13T08:18:04.131Z,94319.72
2022-12-13T08:20:32.052Z,94315.94
2022-12-13T08:23:02.171Z,94316.34
2022-12-13T08:25:32.076Z,94315.03
2022-12-13T08:28:02.288Z,94309.56
2022-12-13T08:30:31.661Z,94317.13
2022-12-13T08:32:59.644Z,94321.09
2022-12-13T08:35:34.654Z,94315.53
2022-12-13T08:38:03.384Z,94318.63
2022-12-13T08:40:32.625Z,94308.56
2022-12-13T08:43:00.508Z,94319.22
2022-12-13T08:45:28.549Z,94326.91
2022-12-13T08:47:59.457Z,94336.44
2022-12-13T08:50:27.613Z,94328.59
2022-12-13T08:52:55.404Z,94324.66
2022-12-13T08:55:31.589Z,94345.31
2022-12-13T08:58:08.275Z,94339.38
2022-12-13T09:00:38.206Z,94347.47
2022-12-13T09:03:06.279Z,94339.78
2022-12-13T09:05:38.041Z,94344.44
2022-12-13T09:08:23.391Z,94353.31
2022-12-13T09:10:59.754Z,94358.09
2022-12-13T09:13:31.316Z,94351.28
2022-12-13T09:16:01.434Z,94348.41
2022-12-13T09:18:36.270Z,94337.22
2022-12-13T09:21:10.215Z,94340.63
2022-12-13T09:23:39.317Z,94331.19
2022-12-13T09:26:15.642Z,94336.84
2022-12-13T09:28:45.028Z,94325.66
2022-12-13T09:31:15.540Z,94332.91
2022-12-13T09:33:44.200Z,94326.09
2022-12-13T09:36:14.359Z,94333.78
2022-12-13T09:38:42.800Z,94328.50
2022-12-13T09:41:20.207Z,94333.09
2022-12-13T09:43:54.237Z,94325.84
2022-12-13T09:46:34.633Z,94316.22
2022-12-13T09:49:22.908Z,94323.66
2022-12-13T09:52:10.154Z,94322.72
2022-12-13T09:54:47.803Z,94324.09
2022-12-13T09:57:31.061Z,94321.34
2022-12-13T10:00:03.723Z,94319.63
2022-12-13T10:02:46.683Z,94317.63
2022-12-13T10:05:24.745Z,94301.56
2022-12-13T10:08:07.392Z,94308.59
2022-12-13T10:10:35.256Z,94302.81
2022-12-13T10:13:12.158Z,94307.16
2022-12-13T10:15:44.555Z,94307.53
2022-12-13T10:18:18.993Z,94300.06
2022-12-13T10:20:50.930Z,94298.91
2022-12-13T10:23:59.339Z,94293.16
2022-12-13T10:26:14.626Z,94305.63
2022-12-13T10:28:46.509Z,94300.03
2022-12-13T10:31:19.916Z,94299.31
2022-12-13T10:33:57.578Z,94294.69
2022-12-13T10:36:34.578Z,94288.78
2022-12-13T10:39:03.043Z,94289.25
2022-12-13T10:41:34.392Z,94301.59
2022-12-13T10:44:25.141Z,94282.69
2022-12-13T10:47:16.781Z,94266.34
2022-12-13T10:49:59.153Z,94262.06
2022-12-13T10:52:31.959Z,94273.34
2022-12-13T10:55:03.308Z,94278.28
2022-12-13T10:57:31.763Z,94277.50
2022-12-13T10:59:59.641Z,94272.13
2022-12-13T11:02:35.432Z,94278.56
2022-12-13T11:05:25.672Z,94273.09
2022-12-13T11:07:55.241Z,94261.88
2022-12-13T11:10:30.694Z,94258.81
2022-12-13T11:13:02.413Z,94262.97
2022-12-13T11:15:32.046Z,94248.56
2022-12-13T11:18:03.756Z,94263.59
2022-12-13T11:20:35.247Z,94268.50
2022-12-13T11:23:07.269Z,94261.66
2022-12-13T11:25:41.175Z,94256.31
2022-12-13T11:28:26.302Z,94258.63
2022-12-13T11:31:09.322Z,94253.97
2022-12-13T11:33:47.546Z,94254.00
2022-12-13T11:36:29.365Z,94238.31
2022-12-13T11:39:14.169Z,94247.16
2022-12-13T11:41:50.327Z,94227.63
2022-12-13T11:44:23.195Z,94245.31
2022-12-13T11:46:53.330Z,94240.84
2022-12-13T11:49:34.270Z,94228.94
2022-12-13T11:52:12.620Z,94226.94
2022-12-13T11:54:50.419Z,94237.63
2022-12-13T11:57:31.481Z,94235.56
2022-12-13T12:00:13.344Z,94231.22
2022-12-13T12:02:48.195Z,94237.94
2022-12-13T12:05:28.515Z,94234.47
2022-12-13T12:10:59.337Z,94232.19
2022-12-13T12:13:33.484Z,94236.94
2022-12-13T12:16:09.466Z,94229.47
2022-12-13T12:18:37.441Z,94227.88
2022-12-13T12:21:19.034Z,94230.41
2022-12-13T12:24:03.133Z,94215.91
2022-12-13T12:26:41.848Z,94221.69
2022-12-13T12:29:42.427Z,94221.16
2022-12-13T12:32:20.574Z,94218.63
2022-12-13T12:34:57.592Z,94208.09
2022-12-13T12:37:37.987Z,94214.78
2022-12-13T12:40:40.127Z,94223.34
2022-12-13T12:43:27.971Z,94212.59
2022-12-13T12:46:06.363Z,94214.13
2022-12-13T12:49:04.932Z,94213.09
2022-12-13T12:51:44.646Z,94221.06
2022-12-13T12:54:32.237Z,94225.13
2022-12-13T12:57:07.550Z,94226.44
2022-12-13T12:59:46.327Z,94225.41
2022-12-13T13:02:20.643Z,94229.75
2022-12-13T13:04:58.956Z,94237.81
2022-12-13T13:07:32.375Z,94234.25
2022-12-13T13:10:25.796Z,94245.81
2022-12-13T13:13:12.019Z,94242.88
2022-12-13T13:15:58.003Z,94242.47
2022-12-13T13:18:45.958Z,94239.84
2022-12-13T13:21:47.165Z,94232.78
2022-12-13T13:24:21.547Z,94234.63
2022-12-13T13:26:52.531Z,94245.28
2022-12-13T13:29:43.476Z,94249.25
2022-12-13T13:32:29.600Z,94234.75
2022-12-13T13:35:55.792Z,94247.41
2022-12-13T13:38:54.546Z,94251.88
2022-12-13T13:41:53.967Z,94258.50
2022-12-13T13:44:55.221Z,94249.25
2022-12-13T13:47:41.570Z,94252.94
2022-12-13T13:50:53.107Z,94247.00
2022-12-13T13:54:00.302Z,94256.91
2022-12-13T13:57:04.221Z,94251.19
2022-12-13T14:00:16.191Z,94244.09
2022-12-13T14:03:35.668Z,94261.69
2022-12-13T14:06:41.765Z,94255.75
2022-12-13T14:09:46.281Z,94253.53
2022-12-13T14:12:50.154Z,94257.03
2022-12-13T14:15:54.652Z,94248.69
2022-12-13T14:18:56.349Z,94241.31
2022-12-13T14:21:35.780Z,94249.28
2022-12-13T14:24:16.499Z,94253.44
2022-12-13T14:26:57.267Z,94251.81
2022-12-13T14:29:30.649Z,94258.66
2022-12-13T14:32:00.135Z,94251.84
2022-12-13T14:34:30.965Z,94265.69
2022-12-13T14:37:01.373Z,94252.03
2022-12-13T14:39:33.967Z,94253.44
2022-12-13T14:42:04.387Z,94259.34
2022-12-13T14:44:35.220Z,94262.88
2022-12-13T14:47:07.243Z,94268.59
2022-12-13T14:49:39.231Z,94271.19
2022-12-13T14:52:10.240Z,94270.19
2022-12-13T14:54:46.386Z,94261.00
2022-12-13T14:57:17.166Z,94263.56
2022-12-13T14:59:50.251Z,94266.97
2022-12-13T15:02:30.952Z,94252.38
2022-12-13T15:05:01.173Z,94250.06
2022-12-13T15:07:32.473Z,94252.88
2022-12-13T15:10:02.687Z,94256.00
2022-12-13T15:12:30.915Z,94265.41
2022-12-13T15:15:02.370Z,94264.94
2022-12-13T15:17:34.834Z,94259.66
2022-12-13T15:20:32.888Z,94272.31
2022-12-13T15:23:08.160Z,94264.25
2022-12-13T15:25:41.777Z,94264.25
2022-12-13T15:28:16.859Z,94260.69
2022-12-13T15:30:48.678Z,94256.88
2022-12-13T15:33:25.253Z,94260.28
2022-12-13T15:36:05.751Z,94270.38
2022-12-13T15:38:34.797Z,94260.44
2022-12-13T15:41:04.800Z,94255.84
2022-12-13T15:43:38.385Z,94265.00
2022-12-13T15:46:07.999Z,94262.09
2022-12-13T15:48:41.296Z,94258.28
2022-12-13T15:51:28.922Z,94262.00
2022-12-13T15:54:05.198Z,94255.75
2022-12-13T15:56:36.517Z,94252.66
2022-12-13T15:59:05.395Z,94250.44
2022-12-13T16:01:35.581Z,94244.78
2022-12-13T16:04:05.617Z,94248.03
2022-12-13T16:06:34.681Z,94243.63
2022-12-13T16:09:04.671Z,94240.53
2022-12-13T16:11:36.340Z,94239.00
2022-12-13T16:14:28.856Z,94238.16
2022-12-13T16:16:58.198Z,94223.09
2022-12-13T16:19:28.456Z,94238.97
2022-12-13T16:21:56.448Z,94236.22
2022-12-13T16:24:24.783Z,94235.56
2022-12-13T16:26:52.678Z,94239.09
2022-12-13T16:29:20.846Z,94232.84
2022-12-13T16:31:49.438Z,94226.13
2022-12-13T16:34:19.607Z,94231.69
2022-12-13T16:36:56.588Z,94226.59
2022-12-13T16:39:25.211Z,94218.41
2022-12-13T16:41:54.144Z,94218.06
2022-12-13T16:44:24.608Z,94218.22
2022-12-13T16:47:15.155Z,94216.50
2022-12-13T16:49:42.430Z,94212.75
2022-12-13T16:52:11.594Z,94208.75
2022-12-13T16:54:41.155Z,94208.34
2022-12-13T16:57:10.552Z,94208.03
2022-12-13T16:59:38.317Z,94201.56
2022-12-13T17:02:06.291Z,94212.56
2022-12-13T17:04:34.185Z,94199.97
2022-12-13T17:07:01.986Z,94194.44
2022-12-13T17:09:35.040Z,94196.03
2022-12-13T17:12:03.167Z,94189.47
2022-12-13T17:14:30.948Z,94185.63
2022-12-13T17:16:58.815Z,94195.91
2022-12-13T17:19:27.064Z,94199.34
2022-12-13T17:21:55.074Z,94189.72
2022-12-13T17:24:23.664Z,94176.56
2022-12-13T17:26:54.242Z,94188.47
2022-12-13T17:29:23.711Z,94195.84
2022-12-13T17:31:52.470Z,94203.09
2022-12-13T17:34:20.759Z,94198.56
2022-12-13T17:36:52.012Z,94183.59
2022-12-13T17:39:21.058Z,94177.84
2022-12-13T17:41:55.683Z,94173.97
2022-12-13T17:44:25.762Z,94174.41
2022-12-13T17:46:54.993Z,94184.16
2022-12-13T17:49:23.665Z,94175.91
2022-12-13T17:51:53.670Z,94174.19
2022-12-13T17:54:21.903Z,94168.53
2022-12-13T17:56:50.416Z,94168.53
2022-12-13T17:59:18.453Z,94176.16
2022-12-13T18:01:48.101Z,94174.34
2022-12-13T18:04:16.735Z,94169.91
2022-12-13T18:06:44.778Z,94173.09
2022-12-13T18:09:13.580Z,94165.06
2022-12-13T18:11:41.736Z,94177.72
2022-12-13T18:14:10.020Z,94155.75
2022-12-13T18:16:39.684Z,94156.78
2022-12-13T18:19:12.123Z,94166.75
2022-12-13T18:21:40.870Z,94156.31
2022-12-13T18:24:09.088Z,94155.63
2022-12-13T18:26:37.004Z,94158.56
2022-12-13T18:29:05.802Z,94168.19
2022-12-13T18:31:33.988Z,94163.19
2022-12-13T18:34:01.834Z,94165.56
2022-12-13T18:36:31.042Z,94170.22
2022-12-13T18:38:58.896Z,94165.34
2022-12-13T18:41:29.111Z,94164.34
2022-12-13T18:43:59.380Z,94173.84
2022-12-13T18:46:28.897Z,94160.94
2022-12-13T18:48:57.796Z,94147.69
2022-12-13T18:51:26.400Z,94158.78
2022-12-13T18:53:56.477Z,94145.75
2022-12-13T18:56:25.822Z,94144.78
2022-12-13T18:58:54.454Z,94134.13
2022-12-13T19:01:26.697Z,94142.66
2022-12-13T19:03:54.849Z,94143.44
2022-12-13T19:06:24.786Z,94134.94
2022-12-13T19:08:54.447Z,94133.22
2022-12-13T19:11:24.555Z,94134.06
2022-12-13T19:13:53.008Z,94136.56
2022-12-13T19:16:23.632Z,94126.47
2022-12-13T19:18:51.976Z,94127.16
2022-12-13T19:21:21.748Z,94140.31
2022-12-13T19:23:56.508Z,94133.41
2022-12-13T19:26:29.009Z,94122.63
2022-12-13T19:28:57.590Z,94116.63
2022-12-13T19:31:30.840Z,94102.81
2022-12-13T19:33:59.830Z,94122.28
2022-12-13T19:36:27.658Z,94122.84
2022-12-13T19:38:56.860Z,94123.06
2022-12-13T19:41:26.194Z,94116.06
2022-12-13T19:43:54.302Z,94109.38
2022-12-13T19:46:22.505Z,94104.09
2022-12-13T19:48:50.951Z,94103.31
2022-12-13T19:51:18.805Z,94101.50
2022-12-13T19:53:47.264Z,94103.88
2022-12-13T19:56:17.805Z,94109.88
2022-12-13T19:58:49.908Z,94101.69
2022-12-13T20:01:19.157Z,94102.81
2022-12-13T20:03:47.815Z,94084.50
2022-12-13T20:06:18.474Z,94082.59
2022-12-13T20:08:46.407Z,94086.88
2022-12-13T20:11:16.956Z,94091.19
2022-12-13T20:13:44.811Z,94090.91
2022-12-13T20:16:18.228Z,94096.59
2022-12-13T20:18:46.932Z,94096.75
2022-12-13T20:21:16.026Z,94098.31
2022-12-13T20:23:49.143Z,94090.63
2022-12-13T20:26:20.037Z,94093.69
2022-12-13T20:28:48.172Z,94089.03
2022-12-13T20:31:19.600Z,94106.78
2022-12-13T20:33:48.038Z,94093.28
2022-12-13T20:36:26.141Z,94078.94
2022-12-13T20:38:56.021Z,94077.38
2022-12-13T20:41:26.066Z,94074.50
2022-12-13T20:43:54.743Z,94063.84
2022-12-13T20:46:25.026Z,94066.28
2022-12-13T20:48:53.431Z,94060.72
2022-12-13T20:51:23.238Z,94066.09
2022-12-13T20:53:52.334Z,94051.47
2022-12-13T20:56:22.121Z,94069.53
2022-12-13T20:58:50.475Z,94022.53
2022-12-13T21:01:19.956Z,94039.78
2022-12-13T21:03:49.432Z,94034.63
2022-12-13T21:06:17.265Z,94030.09
2022-12-13T21:08:54.697Z,94035.28
2022-12-13T21:11:26.987Z,94020.06
2022-12-13T21:13:59.032Z,94021.56
2022-12-13T21:16:31.892Z,94026.81
2022-12-13T21:19:02.523Z,94007.22
2022-12-13T21:21:30.921Z,93995.25
2022-12-13T21:23:59.583Z,94000.16
2022-12-13T21:26:34.607Z,94010.00
2022-12-13T21:29:05.213Z,94005.69
2022-12-13T21:31:33.278Z,94008.66
2022-12-13T21:34:03.067Z,94010.81
2022-12-13T21:36:32.532Z,94008.44
2022-12-13T21:39:01.987Z,94006.31
2022-12-13T21:41:30.131Z,94011.34
2022-12-13T21:44:00.188Z,94012.38
2022-12-13T21:46:54.836Z,93994.69
2022-12-13T21:49:19.899Z,93979.41
2022-12-13T21:51:48.673Z,93973.63
2022-12-13T21:54:17.674Z,93992.84
2022-12-13T21:57:03.018Z,93995.78
2022-12-13T21:59:31.858Z,93989.75
2022-12-13T22:02:14.711Z,93980.03
2022-12-13T22:04:45.710Z,93966.94
2022-12-13T22:07:15.869Z,93969.53
2022-12-13T22:09:45.386Z,93966.53
2022-12-13T22:12:21.012Z,93970.84
2022-12-13T22:14:49.066Z,93967.59
2022-12-13T22:17:17.853Z,93958.41
2022-12-13T22:19:48.914Z,93931.09
2022-12-13T22:22:17.693Z,93970.28
2022-12-13T22:24:52.713Z,93977.53
2022-12-13T22:27:25.365Z,93963.59
2022-12-13T22:29:55.555Z,93970.94
2022-12-13T22:32:23.840Z,93968.53
2022-12-13T22:34:54.427Z,93962.56
2022-12-13T22:37:22.825Z,93957.34
2022-12-13T22:39:51.195Z,93957.75
2022-12-13T22:42:20.085Z,93955.13
2022-12-13T22:44:48.189Z,93960.19
2022-12-13T22:47:16.363Z,93972.41
2022-12-13T22:49:44.315Z,93955.59
2022-12-13T22:52:18.197Z,93961.09
2022-12-13T22:54:46.158Z,93963.06
2022-12-13T22:57:14.068Z,93966.84
2022-12-13T22:59:42.208Z,93957.56
2022-12-13T23:02:10.400Z,93947.84
2022-12-13T23:04:38.711Z,93934.28
2022-12-13T23:07:06.609Z,93943.47
2022-12-13T23:09:35.930Z,93930.72
2022-12-13T23:12:21.514Z,93913.13
2022-12-13T23:14:49.517Z,93907.09
2022-12-13T23:17:17.372Z,93919.16
2022-12-13T23:19:49.659Z,93914.72
2022-12-13T23:22:19.833Z,93915.88
2022-12-13T23:24:49.581Z,93916.41
2022-12-13T23:27:17.720Z,93915.63
2022-12-13T23:29:45.599Z,93908.28
2022-12-13T23:32:13.858Z,93908.16
2022-12-13T23:34:41.700Z,93914.22
2022-12-13T23:37:09.651Z,93917.75
2022-12-13T23:39:37.580Z,93915.91
2022-12-13T23:42:07.273Z,93911.44
2022-12-13T23:44:35.414Z,93899.09
2022-12-13T23:47:03.288Z,93890.81
2022-12-13T23:49:31.108Z,93887.66
2022-12-13T23:51:58.929Z,93872.41
2022-12-13T23:54:27.924Z,93849.16
2022-12-13T23:56:55.918Z,93851.53
2022-12-13T23:59:26.098Z,93857.94
